sensor_id;sensor_type;location;lat;lon;timestamp;pressure;altitude;pressure_sealevel;temperature;humidity
40794;BME280;26502;51.886;15.604;2024-01-07T00:03:50;100750.48;;;-1.89;76.33
40794;BME280;26502;51.886;15.604;2024-01-07T00:09:17;100749.95;;;-1.90;76.20
40794;BME280;26502;51.886;15.604;2024-01-07T00:14:43;100758.30;;;-1.90;76.08
40794;BME280;26502;51.886;15.604;2024-01-07T00:20:11;100756.80;;;-1.86;76.07
40794;BME280;26502;51.886;15.604;2024-01-07T00:25:37;100765.29;;;-1.79;76.13
40794;BME280;26502;51.886;15.604;2024-01-07T00:31:03;100766.57;;;-1.77;76.05
40794;BME280;26502;51.886;15.604;2024-01-07T00:36:29;100778.27;;;-1.83;75.93
40794;BME280;26502;51.886;15.604;2024-01-07T00:41:55;100784.59;;;-1.90;75.90
40794;BME280;26502;51.886;15.604;2024-01-07T00:47:21;100793.31;;;-1.97;75.64
40794;BME280;26502;51.886;15.604;2024-01-07T00:52:47;100797.35;;;-2.04;75.64
40794;BME280;26502;51.886;15.604;2024-01-07T00:58:13;100809.10;;;-2.08;75.80
40794;BME280;26502;51.886;15.604;2024-01-07T01:03:39;100807.08;;;-2.13;75.60
40794;BME280;26502;51.886;15.604;2024-01-07T01:09:05;100817.43;;;-2.17;75.34
40794;BME280;26502;51.886;15.604;2024-01-07T01:14:32;100815.69;;;-2.26;75.26
40794;BME280;26502;51.886;15.604;2024-01-07T01:20:00;100820.95;;;-2.23;75.48
40794;BME280;26502;51.886;15.604;2024-01-07T01:25:26;100828.77;;;-2.23;75.45
40794;BME280;26502;51.886;15.604;2024-01-07T01:30:54;100833.86;;;-2.30;75.44
40794;BME280;26502;51.886;15.604;2024-01-07T01:36:20;100842.14;;;-2.32;75.34
40794;BME280;26502;51.886;15.604;2024-01-07T01:41:45;100839.03;;;-2.39;75.26
40794;BME280;26502;51.886;15.604;2024-01-07T01:47:12;100841.84;;;-2.46;75.16
40794;BME280;26502;51.886;15.604;2024-01-07T01:52:39;100851.05;;;-2.53;74.95
40794;BME280;26502;51.886;15.604;2024-01-07T01:58:06;100852.29;;;-2.60;74.99
40794;BME280;26502;51.886;15.604;2024-01-07T02:03:34;100856.29;;;-2.60;74.93
40794;BME280;26502;51.886;15.604;2024-01-07T02:09:00;100854.27;;;-2.65;74.73
40794;BME280;26502;51.886;15.604;2024-01-07T02:14:26;100856.12;;;-2.67;74.82
40794;BME280;26502;51.886;15.604;2024-01-07T02:19:52;100858.37;;;-2.68;74.64
40794;BME280;26502;51.886;15.604;2024-01-07T02:25:18;100858.98;;;-2.71;74.69
40794;BME280;26502;51.886;15.604;2024-01-07T02:30:45;100858.66;;;-2.77;74.65
40794;BME280;26502;51.886;15.604;2024-01-07T02:36:11;100863.67;;;-2.78;74.73
40794;BME280;26502;51.886;15.604;2024-01-07T02:41:37;100862.77;;;-2.73;74.71
40794;BME280;26502;51.886;15.604;2024-01-07T02:47:03;100865.80;;;-2.77;74.55
40794;BME280;26502;51.886;15.604;2024-01-07T02:52:30;100867.48;;;-2.79;74.57
40794;BME280;26502;51.886;15.604;2024-01-07T02:57:56;100875.75;;;-2.89;74.36
40794;BME280;26502;51.886;15.604;2024-01-07T03:03:22;100883.46;;;-2.93;74.47
40794;BME280;26502;51.886;15.604;2024-01-07T03:08:49;100881.19;;;-2.93;74.44
40794;BME280;26502;51.886;15.604;2024-01-07T03:14:15;100879.93;;;-2.95;74.40
40794;BME280;26502;51.886;15.604;2024-01-07T03:19:45;100883.20;;;-2.97;74.27
40794;BME280;26502;51.886;15.604;2024-01-07T03:25:11;100880.60;;;-2.96;74.35
40794;BME280;26502;51.886;15.604;2024-01-07T03:30:37;100880.63;;;-2.95;74.37
40794;BME280;26502;51.886;15.604;2024-01-07T03:36:07;100887.23;;;-2.95;74.23
40794;BME280;26502;51.886;15.604;2024-01-07T03:41:34;100885.62;;;-2.97;74.16
40794;BME280;26502;51.886;15.604;2024-01-07T03:47:00;100892.88;;;-2.98;74.14
40794;BME280;26502;51.886;15.604;2024-01-07T03:52:26;100895.98;;;-2.99;74.06
40794;BME280;26502;51.886;15.604;2024-01-07T03:57:53;100894.23;;;-3.00;73.95
40794;BME280;26502;51.886;15.604;2024-01-07T04:03:19;100899.13;;;-3.05;73.68
40794;BME280;26502;51.886;15.604;2024-01-07T04:08:45;100902.94;;;-3.06;73.88
40794;BME280;26502;51.886;15.604;2024-01-07T04:14:15;100905.25;;;-3.11;73.78
40794;BME280;26502;51.886;15.604;2024-01-07T04:19:41;100909.46;;;-3.15;73.74
40794;BME280;26502;51.886;15.604;2024-01-07T04:25:07;100917.71;;;-3.12;73.80
40794;BME280;26502;51.886;15.604;2024-01-07T04:30:35;100921.71;;;-3.12;73.78
40794;BME280;26502;51.886;15.604;2024-01-07T04:36:01;100919.44;;;-3.13;73.70
40794;BME280;26502;51.886;15.604;2024-01-07T04:41:28;100926.59;;;-3.11;73.76
40794;BME280;26502;51.886;15.604;2024-01-07T04:46:54;100932.35;;;-3.11;73.68
40794;BME280;26502;51.886;15.604;2024-01-07T04:52:20;100939.68;;;-3.09;73.62
40794;BME280;26502;51.886;15.604;2024-01-07T04:57:47;100942.96;;;-3.10;73.58
40794;BME280;26502;51.886;15.604;2024-01-07T05:03:12;100951.92;;;-3.07;73.68
40794;BME280;26502;51.886;15.604;2024-01-07T05:08:39;100954.05;;;-3.11;73.60
40794;BME280;26502;51.886;15.604;2024-01-07T05:14:07;100958.50;;;-3.07;73.66
40794;BME280;26502;51.886;15.604;2024-01-07T05:19:33;100956.73;;;-3.09;73.53
40794;BME280;26502;51.886;15.604;2024-01-07T05:24:59;100959.12;;;-3.17;73.18
40794;BME280;26502;51.886;15.604;2024-01-07T05:30:26;100974.95;;;-3.22;73.18
40794;BME280;26502;51.886;15.604;2024-01-07T05:35:51;100980.84;;;-3.22;73.02
40794;BME280;26502;51.886;15.604;2024-01-07T05:41:17;100985.40;;;-3.27;72.72
40794;BME280;26502;51.886;15.604;2024-01-07T05:46:43;100986.86;;;-3.30;72.72
40794;BME280;26502;51.886;15.604;2024-01-07T05:52:09;100984.79;;;-3.30;72.51
40794;BME280;26502;51.886;15.604;2024-01-07T05:57:35;100990.77;;;-3.34;72.17
40794;BME280;26502;51.886;15.604;2024-01-07T06:03:01;101000.98;;;-3.40;72.10
40794;BME280;26502;51.886;15.604;2024-01-07T06:08:27;101002.93;;;-3.45;72.13
40794;BME280;26502;51.886;15.604;2024-01-07T06:13:53;101012.16;;;-3.50;71.88
40794;BME280;26502;51.886;15.604;2024-01-07T06:19:20;101023.61;;;-3.50;71.97
40794;BME280;26502;51.886;15.604;2024-01-07T06:24:46;101033.48;;;-3.57;71.72
40794;BME280;26502;51.886;15.604;2024-01-07T06:30:15;101043.25;;;-3.67;71.34
40794;BME280;26502;51.886;15.604;2024-01-07T06:35:41;101053.54;;;-3.77;71.10
40794;BME280;26502;51.886;15.604;2024-01-07T06:41:07;101058.08;;;-3.81;70.72
40794;BME280;26502;51.886;15.604;2024-01-07T06:46:34;101058.82;;;-3.90;70.29
40794;BME280;26502;51.886;15.604;2024-01-07T06:52:00;101067.83;;;-3.91;70.53
40794;BME280;26502;51.886;15.604;2024-01-07T06:57:26;101078.86;;;-3.99;70.42
40794;BME280;26502;51.886;15.604;2024-01-07T07:02:52;101086.77;;;-4.00;70.35
40794;BME280;26502;51.886;15.604;2024-01-07T07:08:20;101097.02;;;-4.05;70.15
40794;BME280;26502;51.886;15.604;2024-01-07T07:13:46;101105.06;;;-4.08;70.27
40794;BME280;26502;51.886;15.604;2024-01-07T07:19:12;101106.61;;;-4.09;70.31
40794;BME280;26502;51.886;15.604;2024-01-07T07:24:44;101115.55;;;-4.11;70.17
40794;BME280;26502;51.886;15.604;2024-01-07T07:30:10;101125.98;;;-4.11;70.30
40794;BME280;26502;51.886;15.604;2024-01-07T07:35:36;101136.04;;;-4.05;70.25
40794;BME280;26502;51.886;15.604;2024-01-07T07:41:04;101129.84;;;-3.99;70.29
40794;BME280;26502;51.886;15.604;2024-01-07T07:46:32;101135.70;;;-4.00;69.98
40794;BME280;26502;51.886;15.604;2024-01-07T07:51:58;101144.36;;;-4.01;70.25
40794;BME280;26502;51.886;15.604;2024-01-07T07:57:23;101154.00;;;-3.98;70.27
40794;BME280;26502;51.886;15.604;2024-01-07T08:02:49;101153.27;;;-3.94;70.38
40794;BME280;26502;51.886;15.604;2024-01-07T08:08:16;101155.70;;;-3.93;70.36
40794;BME280;26502;51.886;15.604;2024-01-07T08:13:42;101157.61;;;-3.89;70.48
40794;BME280;26502;51.886;15.604;2024-01-07T08:19:08;101169.25;;;-3.88;70.28
40794;BME280;26502;51.886;15.604;2024-01-07T08:24:34;101180.58;;;-3.92;70.35
40794;BME280;26502;51.886;15.604;2024-01-07T08:30:00;101184.88;;;-3.88;70.39
40794;BME280;26502;51.886;15.604;2024-01-07T08:35:26;101187.05;;;-3.85;70.46
40794;BME280;26502;51.886;15.604;2024-01-07T08:40:52;101180.95;;;-3.81;70.42
40794;BME280;26502;51.886;15.604;2024-01-07T08:46:17;101181.82;;;-3.81;70.49
40794;BME280;26502;51.886;15.604;2024-01-07T08:51:45;101181.96;;;-3.87;70.18
40794;BME280;26502;51.886;15.604;2024-01-07T08:57:11;101188.08;;;-3.81;70.36
40794;BME280;26502;51.886;15.604;2024-01-07T09:02:39;101196.32;;;-3.79;70.33
40794;BME280;26502;51.886;15.604;2024-01-07T09:08:07;101211.95;;;-3.63;70.49
40794;BME280;26502;51.886;15.604;2024-01-07T09:13:33;101221.46;;;-3.58;70.37
40794;BME280;26502;51.886;15.604;2024-01-07T09:18:59;101225.70;;;-3.66;69.96
40794;BME280;26502;51.886;15.604;2024-01-07T09:24:26;101231.77;;;-3.72;70.13
40794;BME280;26502;51.886;15.604;2024-01-07T09:29:52;101233.87;;;-3.66;70.17
40794;BME280;26502;51.886;15.604;2024-01-07T09:35:19;101235.48;;;-3.65;70.13
40794;BME280;26502;51.886;15.604;2024-01-07T09:40:45;101236.10;;;-3.51;70.25
40794;BME280;26502;51.886;15.604;2024-01-07T09:46:11;101234.68;;;-3.53;69.66
40794;BME280;26502;51.886;15.604;2024-01-07T09:51:37;101235.86;;;-3.54;69.78
40794;BME280;26502;51.886;15.604;2024-01-07T09:57:06;101234.13;;;-3.49;69.80
40794;BME280;26502;51.886;15.604;2024-01-07T10:02:35;101244.52;;;-3.39;69.73
40794;BME280;26502;51.886;15.604;2024-01-07T10:08:01;101235.67;;;-3.38;69.51
40794;BME280;26502;51.886;15.604;2024-01-07T10:13:27;101231.65;;;-3.39;69.67
40794;BME280;26502;51.886;15.604;2024-01-07T10:18:53;101225.53;;;-3.35;69.64
40794;BME280;26502;51.886;15.604;2024-01-07T10:24:19;101225.48;;;-3.26;69.51
40794;BME280;26502;51.886;15.604;2024-01-07T10:29:48;101218.20;;;-3.09;69.60
40794;BME280;26502;51.886;15.604;2024-01-07T10:35:15;101231.05;;;-3.10;69.37
40794;BME280;26502;51.886;15.604;2024-01-07T10:40:45;101229.30;;;-3.10;69.33
40794;BME280;26502;51.886;15.604;2024-01-07T10:46:13;101226.53;;;-3.15;69.24
40794;BME280;26502;51.886;15.604;2024-01-07T10:51:40;101220.39;;;-3.12;69.26
40794;BME280;26502;51.886;15.604;2024-01-07T10:57:18;101216.61;;;-3.04;69.16
40794;BME280;26502;51.886;15.604;2024-01-07T11:03:02;101213.23;;;-3.12;68.83
40794;BME280;26502;51.886;15.604;2024-01-07T11:08:34;101214.69;;;-3.11;68.91
40794;BME280;26502;51.886;15.604;2024-01-07T11:14:01;101209.38;;;-3.02;68.83
40794;BME280;26502;51.886;15.604;2024-01-07T11:19:27;101208.11;;;-3.15;68.38
40794;BME280;26502;51.886;15.604;2024-01-07T11:24:53;101210.88;;;-3.11;68.56
40794;BME280;26502;51.886;15.604;2024-01-07T11:30:21;101207.83;;;-2.96;68.44
40794;BME280;26502;51.886;15.604;2024-01-07T11:36:03;101206.83;;;-2.90;68.27
40794;BME280;26502;51.886;15.604;2024-01-07T11:41:31;101207.03;;;-2.94;68.04
40794;BME280;26502;51.886;15.604;2024-01-07T11:46:59;101204.55;;;-2.84;68.04
40794;BME280;26502;51.886;15.604;2024-01-07T11:52:25;101208.73;;;-2.72;68.13
40794;BME280;26502;51.886;15.604;2024-01-07T11:57:52;101209.81;;;-2.82;67.66
40794;BME280;26502;51.886;15.604;2024-01-07T12:03:18;101214.49;;;-2.94;67.72
40794;BME280;26502;51.886;15.604;2024-01-07T12:08:46;101214.55;;;-2.99;67.69
40794;BME280;26502;51.886;15.604;2024-01-07T12:14:12;101209.48;;;-2.93;67.79
40794;BME280;26502;51.886;15.604;2024-01-07T12:19:39;101204.39;;;-2.89;67.86
40794;BME280;26502;51.886;15.604;2024-01-07T12:25:07;101213.10;;;-2.94;67.76
40794;BME280;26502;51.886;15.604;2024-01-07T12:30:33;101219.61;;;-3.09;67.68
40794;BME280;26502;51.886;15.604;2024-01-07T12:35:59;101227.76;;;-3.15;67.70
40794;BME280;26502;51.886;15.604;2024-01-07T12:41:25;101233.36;;;-3.24;67.91
40794;BME280;26502;51.886;15.604;2024-01-07T12:46:51;101233.30;;;-3.26;68.02
40794;BME280;26502;51.886;15.604;2024-01-07T12:52:17;101242.87;;;-3.36;67.87
40794;BME280;26502;51.886;15.604;2024-01-07T12:57:43;101248.20;;;-3.38;67.89
40794;BME280;26502;51.886;15.604;2024-01-07T13:03:09;101247.95;;;-3.45;67.89
40794;BME280;26502;51.886;15.604;2024-01-07T13:08:39;101249.95;;;-3.53;67.96
40794;BME280;26502;51.886;15.604;2024-01-07T13:14:05;101250.83;;;-3.53;68.16
40794;BME280;26502;51.886;15.604;2024-01-07T13:19:31;101255.19;;;-3.57;68.10
40794;BME280;26502;51.886;15.604;2024-01-07T13:24:57;101260.92;;;-3.62;68.13
40794;BME280;26502;51.886;15.604;2024-01-07T13:30:23;101273.80;;;-3.66;68.33
40794;BME280;26502;51.886;15.604;2024-01-07T13:35:49;101271.67;;;-3.73;68.21
40794;BME280;26502;51.886;15.604;2024-01-07T13:41:15;101277.05;;;-3.77;68.23
40794;BME280;26502;51.886;15.604;2024-01-07T13:46:41;101280.02;;;-3.82;68.18
40794;BME280;26502;51.886;15.604;2024-01-07T13:52:08;101284.52;;;-3.87;68.07
40794;BME280;26502;51.886;15.604;2024-01-07T13:57:35;101283.23;;;-3.89;68.08
40794;BME280;26502;51.886;15.604;2024-01-07T14:03:03;101287.58;;;-3.84;68.11
40794;BME280;26502;51.886;15.604;2024-01-07T14:08:29;101284.86;;;-3.82;68.25
40794;BME280;26502;51.886;15.604;2024-01-07T14:13:56;101289.10;;;-3.70;68.16
40794;BME280;26502;51.886;15.604;2024-01-07T14:19:22;101290.42;;;-3.72;68.01
40794;BME280;26502;51.886;15.604;2024-01-07T14:24:48;101295.71;;;-3.75;67.85
40794;BME280;26502;51.886;15.604;2024-01-07T14:30:15;101300.56;;;-3.81;67.86
40794;BME280;26502;51.886;15.604;2024-01-07T14:35:41;101302.43;;;-3.81;67.85
40794;BME280;26502;51.886;15.604;2024-01-07T14:41:07;101308.39;;;-3.84;67.93
40794;BME280;26502;51.886;15.604;2024-01-07T14:46:35;101307.72;;;-3.84;67.94
40794;BME280;26502;51.886;15.604;2024-01-07T14:52:01;101303.75;;;-3.88;67.89
40794;BME280;26502;51.886;15.604;2024-01-07T14:57:27;101312.84;;;-3.95;67.87
40794;BME280;26502;51.886;15.604;2024-01-07T15:02:55;101309.90;;;-3.95;67.92
40794;BME280;26502;51.886;15.604;2024-01-07T15:08:21;101318.17;;;-3.97;68.00
40794;BME280;26502;51.886;15.604;2024-01-07T15:13:47;101319.36;;;-3.92;68.07
40794;BME280;26502;51.886;15.604;2024-01-07T15:19:13;101321.25;;;-3.94;67.95
40794;BME280;26502;51.886;15.604;2024-01-07T15:24:40;101325.23;;;-4.03;68.13
40794;BME280;26502;51.886;15.604;2024-01-07T15:30:08;101335.73;;;-4.01;68.11
40794;BME280;26502;51.886;15.604;2024-01-07T15:35:34;101332.96;;;-3.96;68.10
40794;BME280;26502;51.886;15.604;2024-01-07T15:41:00;101333.14;;;-3.96;68.22
40794;BME280;26502;51.886;15.604;2024-01-07T15:46:27;101337.15;;;-4.04;67.98
40794;BME280;26502;51.886;15.604;2024-01-07T15:51:53;101341.45;;;-4.06;68.10
40794;BME280;26502;51.886;15.604;2024-01-07T15:57:18;101346.09;;;-4.11;68.03
40794;BME280;26502;51.886;15.604;2024-01-07T16:02:44;101345.97;;;-4.19;68.13
40794;BME280;26502;51.886;15.604;2024-01-07T16:08:11;101355.08;;;-4.21;68.26
40794;BME280;26502;51.886;15.604;2024-01-07T16:13:37;101358.17;;;-4.22;68.25
40794;BME280;26502;51.886;15.604;2024-01-07T16:19:04;101362.45;;;-4.24;68.31
40794;BME280;26502;51.886;15.604;2024-01-07T16:24:30;101366.30;;;-4.18;68.43
40794;BME280;26502;51.886;15.604;2024-01-07T16:29:57;101368.13;;;-4.16;68.37
40794;BME280;26502;51.886;15.604;2024-01-07T16:35:23;101368.81;;;-4.11;68.44
40794;BME280;26502;51.886;15.604;2024-01-07T16:40:49;101375.10;;;-4.06;68.44
40794;BME280;26502;51.886;15.604;2024-01-07T16:46:15;101375.20;;;-4.12;68.52
40794;BME280;26502;51.886;15.604;2024-01-07T16:51:41;101381.25;;;-4.17;68.45
40794;BME280;26502;51.886;15.604;2024-01-07T16:57:09;101389.65;;;-4.20;68.49
40794;BME280;26502;51.886;15.604;2024-01-07T17:02:37;101402.39;;;-4.22;68.63
40794;BME280;26502;51.886;15.604;2024-01-07T17:08:04;101406.07;;;-4.22;68.52
40794;BME280;26502;51.886;15.604;2024-01-07T17:13:31;101420.17;;;-4.34;68.32
40794;BME280;26502;51.886;15.604;2024-01-07T17:18:56;101424.42;;;-4.36;68.14
40794;BME280;26502;51.886;15.604;2024-01-07T17:24:22;101423.70;;;-4.36;67.94
40794;BME280;26502;51.886;15.604;2024-01-07T17:29:48;101424.64;;;-4.30;67.78
40794;BME280;26502;51.886;15.604;2024-01-07T17:35:14;101430.71;;;-4.25;67.63
40794;BME280;26502;51.886;15.604;2024-01-07T17:40:40;101441.04;;;-4.31;67.64
40794;BME280;26502;51.886;15.604;2024-01-07T17:46:08;101448.48;;;-4.32;67.65
40794;BME280;26502;51.886;15.604;2024-01-07T17:51:35;101464.85;;;-4.39;67.57
40794;BME280;26502;51.886;15.604;2024-01-07T17:57:03;101468.08;;;-4.58;67.37
40794;BME280;26502;51.886;15.604;2024-01-07T18:02:29;101479.63;;;-4.68;67.55
40794;BME280;26502;51.886;15.604;2024-01-07T18:07:55;101477.29;;;-4.73;67.25
40794;BME280;26502;51.886;15.604;2024-01-07T18:13:22;101482.10;;;-4.91;67.08
40794;BME280;26502;51.886;15.604;2024-01-07T18:18:49;101486.69;;;-4.89;67.14
40794;BME280;26502;51.886;15.604;2024-01-07T18:24:15;101493.58;;;-4.97;66.87
40794;BME280;26502;51.886;15.604;2024-01-07T18:29:41;101501.09;;;-5.12;66.79
40794;BME280;26502;51.886;15.604;2024-01-07T18:35:10;101514.00;;;-5.14;66.82
40794;BME280;26502;51.886;15.604;2024-01-07T18:40:36;101523.45;;;-5.31;66.32
40794;BME280;26502;51.886;15.604;2024-01-07T18:46:02;101528.58;;;-5.44;66.18
40794;BME280;26502;51.886;15.604;2024-01-07T18:51:40;101533.18;;;-5.49;66.05
40794;BME280;26502;51.886;15.604;2024-01-07T18:57:07;101539.43;;;-5.56;66.12
40794;BME280;26502;51.886;15.604;2024-01-07T19:02:33;101540.19;;;-5.73;66.11
40794;BME280;26502;51.886;15.604;2024-01-07T19:07:59;101544.64;;;-5.85;66.06
40794;BME280;26502;51.886;15.604;2024-01-07T19:13:26;101547.53;;;-5.90;66.08
40794;BME280;26502;51.886;15.604;2024-01-07T19:18:52;101547.11;;;-5.91;65.97
40794;BME280;26502;51.886;15.604;2024-01-07T19:24:17;101543.58;;;-5.97;66.00
40794;BME280;26502;51.886;15.604;2024-01-07T19:29:43;101550.11;;;-5.98;66.06
40794;BME280;26502;51.886;15.604;2024-01-07T19:35:10;101559.39;;;-5.98;66.00
40794;BME280;26502;51.886;15.604;2024-01-07T19:40:36;101569.52;;;-6.04;65.85
40794;BME280;26502;51.886;15.604;2024-01-07T19:46:03;101564.92;;;-6.10;66.00
40794;BME280;26502;51.886;15.604;2024-01-07T19:51:30;101559.77;;;-6.20;65.67
40794;BME280;26502;51.886;15.604;2024-01-07T19:56:56;101559.25;;;-6.44;65.46
40794;BME280;26502;51.886;15.604;2024-01-07T20:02:22;101567.13;;;-6.59;65.43
40794;BME280;26502;51.886;15.604;2024-01-07T20:07:48;101575.09;;;-6.59;65.38
40794;BME280;26502;51.886;15.604;2024-01-07T20:13:14;101581.24;;;-6.63;65.20
40794;BME280;26502;51.886;15.604;2024-01-07T20:18:40;101583.27;;;-6.78;65.13
40794;BME280;26502;51.886;15.604;2024-01-07T20:24:07;101586.21;;;-6.91;65.07
40794;BME280;26502;51.886;15.604;2024-01-07T20:29:33;101587.34;;;-7.05;65.18
40794;BME280;26502;51.886;15.604;2024-01-07T20:35:01;101586.85;;;-7.18;65.19
40794;BME280;26502;51.886;15.604;2024-01-07T20:40:27;101590.02;;;-7.16;65.25
40794;BME280;26502;51.886;15.604;2024-01-07T20:45:53;101601.36;;;-7.18;65.19
40794;BME280;26502;51.886;15.604;2024-01-07T20:51:23;101614.92;;;-7.26;65.18
40794;BME280;26502;51.886;15.604;2024-01-07T20:56:50;101618.39;;;-7.34;65.25
40794;BME280;26502;51.886;15.604;2024-01-07T21:02:18;101622.70;;;-7.35;65.26
40794;BME280;26502;51.886;15.604;2024-01-07T21:07:45;101618.69;;;-7.32;65.27
40794;BME280;26502;51.886;15.604;2024-01-07T21:13:13;101622.02;;;-7.28;65.29
40794;BME280;26502;51.886;15.604;2024-01-07T21:18:39;101630.11;;;-7.32;65.34
40794;BME280;26502;51.886;15.604;2024-01-07T21:24:06;101630.69;;;-7.40;65.31
40794;BME280;26502;51.886;15.604;2024-01-07T21:29:32;101643.19;;;-7.45;65.34
40794;BME280;26502;51.886;15.604;2024-01-07T21:34:59;101638.35;;;-7.51;65.25
40794;BME280;26502;51.886;15.604;2024-01-07T21:40:25;101648.30;;;-7.65;65.41
40794;BME280;26502;51.886;15.604;2024-01-07T21:45:51;101652.84;;;-7.63;65.37
40794;BME280;26502;51.886;15.604;2024-01-07T21:51:17;101654.11;;;-7.63;65.30
40794;BME280;26502;51.886;15.604;2024-01-07T21:56:43;101656.13;;;-7.69;65.16
40794;BME280;26502;51.886;15.604;2024-01-07T22:02:10;101666.99;;;-7.72;65.29
40794;BME280;26502;51.886;15.604;2024-01-07T22:07:36;101671.08;;;-7.80;65.31
40794;BME280;26502;51.886;15.604;2024-01-07T22:13:02;101674.63;;;-7.81;65.21
40794;BME280;26502;51.886;15.604;2024-01-07T22:18:28;101676.92;;;-7.89;65.17
40794;BME280;26502;51.886;15.604;2024-01-07T22:23:54;101683.61;;;-7.86;65.42
40794;BME280;26502;51.886;15.604;2024-01-07T22:29:20;101685.12;;;-7.81;65.41
40794;BME280;26502;51.886;15.604;2024-01-07T22:34:46;101691.38;;;-7.95;65.33
40794;BME280;26502;51.886;15.604;2024-01-07T22:40:12;101697.59;;;-7.98;65.23
40794;BME280;26502;51.886;15.604;2024-01-07T22:45:39;101693.59;;;-8.05;65.35
40794;BME280;26502;51.886;15.604;2024-01-07T22:51:05;101701.84;;;-8.02;65.64
40794;BME280;26502;51.886;15.604;2024-01-07T22:56:33;101708.71;;;-8.02;65.51
40794;BME280;26502;51.886;15.604;2024-01-07T23:01:58;101711.67;;;-8.11;65.46
40794;BME280;26502;51.886;15.604;2024-01-07T23:07:25;101720.61;;;-8.08;65.62
40794;BME280;26502;51.886;15.604;2024-01-07T23:12:51;101723.89;;;-8.02;65.67
40794;BME280;26502;51.886;15.604;2024-01-07T23:18:17;101727.73;;;-8.01;65.83
40794;BME280;26502;51.886;15.604;2024-01-07T23:23:43;101729.30;;;-8.01;65.75
40794;BME280;26502;51.886;15.604;2024-01-07T23:29:08;101733.17;;;-8.00;65.73
40794;BME280;26502;51.886;15.604;2024-01-07T23:34:35;101736.04;;;-7.92;66.07
40794;BME280;26502;51.886;15.604;2024-01-07T23:40:02;101749.48;;;-7.95;65.97
40794;BME280;26502;51.886;15.604;2024-01-07T23:45:30;101754.32;;;-8.01;66.13
40794;BME280;26502;51.886;15.604;2024-01-07T23:50:56;101761.63;;;-8.02;66.21
40794;BME280;26502;51.886;15.604;2024-01-07T23:56:22;101768.96;;;-8.10;66.29
